Time;durP1;ratioP1;P1;durP2;ratioP2;P2;SDS_P1;SDS_P2;PMS_P1;PMS_P2;Temp;Humidity;BMP_temperature;BMP_pressure;BME280_temperature;BME280_humidity;BME280_pressure;Samples;Min_cycle;Max_cycle;Signal;HPM_P1;HPM_P2
2022/05/26 00:01:50;;;;;;;2.08;1.00;;;15.30;99.90;;;;;;7277681;32;20164;-60
2022/05/26 00:05:52;;;;;;;3.65;0.70;;;15.30;99.90;;;;;;7360241;32;20531;-61
2022/05/26 00:09:53;;;;;;;2.80;0.80;;;15.40;99.90;;;;;;7358228;32;20141;-62
2022/05/26 00:13:56;;;;;;;3.55;0.90;;;15.30;99.90;;;;;;7362913;32;20201;-61
2022/05/26 00:17:58;;;;;;;3.17;0.90;;;15.30;99.90;;;;;;7366009;32;20684;-62
2022/05/26 00:22:00;;;;;;;5.53;0.70;;;15.30;99.90;;;;;;7369167;32;20115;-61
2022/05/26 00:26:02;;;;;;;3.33;1.02;;;15.30;99.90;;;;;;7360415;32;20106;-63
2022/05/26 00:30:04;;;;;;;3.20;0.70;;;15.30;99.90;;;;;;7360871;32;20119;-61
2022/05/26 00:34:06;;;;;;;1.30;0.70;;;15.30;99.90;;;;;;7365021;32;20115;-60
2022/05/26 00:38:10;;;;;;;3.60;0.60;;;15.30;99.90;;;;;;7362653;32;20783;-61
2022/05/26 00:42:11;;;;;;;6.37;0.80;;;15.30;99.90;;;;;;7365041;32;20497;-61
2022/05/26 00:46:28;;;;;;;3.42;0.70;;;15.30;99.90;;;;;;7368926;32;20165;-61
2022/05/26 00:50:34;;;;;;;3.67;0.80;;;15.30;99.90;;;;;;7351664;32;20123;-62
2022/05/26 00:54:37;;;;;;;2.47;0.80;;;15.30;99.90;;;;;;7356966;32;20233;-61
2022/05/26 00:58:42;;;;;;;3.58;0.88;;;15.30;99.90;;;;;;7358201;32;20107;-60
2022/05/26 01:02:53;;;;;;;4.20;0.98;;;15.30;99.90;;;;;;7361127;32;20425;-61
2022/05/26 01:07:06;;;;;;;6.95;0.88;;;15.30;99.90;;;;;;7357897;32;20259;-61
2022/05/26 01:11:08;;;;;;;4.03;0.85;;;15.30;99.90;;;;;;7361388;32;20239;-61
2022/05/26 01:15:21;;;;;;;3.08;0.70;;;15.30;99.90;;;;;;7355485;32;20111;-61
2022/05/26 01:19:39;;;;;;;2.05;0.60;;;15.20;99.90;;;;;;7350010;32;20125;-61
2022/05/26 01:24:04;;;;;;;5.32;0.95;;;15.30;99.90;;;;;;7358998;32;20223;-61
2022/05/26 01:28:27;;;;;;;2.45;0.90;;;15.20;99.90;;;;;;7366111;32;20321;-62
2022/05/26 01:32:40;;;;;;;3.08;0.90;;;15.20;99.90;;;;;;7359262;32;20176;-61
2022/05/26 01:37:12;;;;;;;3.53;1.00;;;15.20;99.90;;;;;;7362786;32;20129;-61
2022/05/26 01:41:32;;;;;;;2.00;0.93;;;15.20;99.90;;;;;;7342068;32;20133;-60
2022/05/26 01:45:48;;;;;;;2.80;0.93;;;15.20;99.90;;;;;;7358094;32;20131;-61
2022/05/26 01:49:58;;;;;;;2.90;1.10;;;15.20;99.90;;;;;;7362721;32;20134;-61
2022/05/26 01:54:04;;;;;;;3.12;1.00;;;15.10;99.90;;;;;;7364173;32;20119;-61
2022/05/26 01:58:26;;;;;;;3.33;1.00;;;15.20;99.90;;;;;;7363364;32;20228;-61
2022/05/26 02:02:47;;;;;;;2.03;0.90;;;15.10;99.90;;;;;;7345336;32;20147;-60
2022/05/26 02:06:54;;;;;;;5.07;1.20;;;15.10;99.90;;;;;;7370833;32;20642;-61
2022/05/26 02:10:59;;;;;;;3.70;1.02;;;15.10;99.90;;;;;;7362785;32;20114;-61
2022/05/26 02:15:18;;;;;;;3.22;1.25;;;15.10;99.90;;;;;;7366439;32;20538;-60
2022/05/26 02:19:20;;;;;;;6.12;1.27;;;15.10;99.90;;;;;;7365638;32;20136;-61
2022/05/26 02:23:36;;;;;;;3.72;1.20;;;15.00;99.90;;;;;;7363608;32;20241;-61
2022/05/26 02:27:38;;;;;;;3.17;1.00;;;15.00;99.90;;;;;;7364650;32;20100;-60
2022/05/26 02:31:41;;;;;;;3.35;1.00;;;15.00;99.90;;;;;;7356559;32;20127;-61
2022/05/26 02:35:47;;;;;;;3.83;1.50;;;15.10;99.90;;;;;;7367688;32;20115;-61
2022/05/26 02:39:48;;;;;;;4.57;1.12;;;15.00;99.90;;;;;;7367064;32;20133;-60
2022/05/26 02:43:51;;;;;;;3.62;1.20;;;15.00;99.90;;;;;;7360483;32;20134;-60
2022/05/26 02:48:32;;;;;;;2.20;1.25;;;15.00;99.90;;;;;;7362286;32;20130;-61
2022/05/26 02:52:57;;;;;;;2.12;1.15;;;15.00;99.90;;;;;;7355328;32;20107;-60
2022/05/26 02:57:14;;;;;;;4.90;1.00;;;15.00;99.90;;;;;;7361687;32;20111;-60
2022/05/26 03:01:41;;;;;;;2.75;1.23;;;14.90;99.90;;;;;;7355407;32;20257;-60
2022/05/26 03:05:55;;;;;;;4.87;1.35;;;14.90;99.90;;;;;;7365841;32;20220;-60
2022/05/26 03:10:00;;;;;;;3.08;1.33;;;14.90;99.90;;;;;;7375852;32;20137;-60
2022/05/26 03:14:01;;;;;;;3.92;1.33;;;14.90;99.90;;;;;;7358478;32;20104;-60
2022/05/26 03:18:03;;;;;;;3.50;1.23;;;14.90;99.90;;;;;;7358162;32;20106;-60
2022/05/26 03:22:05;;;;;;;2.00;1.20;;;14.90;99.90;;;;;;7363232;32;20131;-60
2022/05/26 03:26:07;;;;;;;2.33;1.20;;;14.90;99.90;;;;;;7369923;32;20573;-60
2022/05/26 03:30:09;;;;;;;2.97;1.35;;;14.90;99.90;;;;;;7367122;32;20133;-60
2022/05/26 03:42:52;;;;;;;2.97;1.20;;;14.80;99.90;;;;;;7373043;32;20144;-61
2022/05/26 03:46:54;;;;;;;4.18;1.70;;;14.80;99.90;;;;;;7356719;32;20620;-60
2022/05/26 03:50:57;;;;;;;4.75;1.70;;;14.70;99.90;;;;;;7361176;32;20707;-60
2022/05/26 03:54:58;;;;;;;5.03;2.20;;;14.60;99.90;;;;;;7364287;32;20548;-60
2022/05/26 03:59:00;;;;;;;6.30;2.40;;;14.50;99.90;;;;;;7365178;32;20125;-61
2022/05/26 04:03:03;;;;;;;5.82;2.58;;;14.40;99.90;;;;;;7353548;32;20138;-60
2022/05/26 04:07:05;;;;;;;4.43;2.80;;;14.20;99.90;;;;;;7366943;32;20108;-60
2022/05/26 04:11:07;;;;;;;7.12;3.08;;;14.10;99.90;;;;;;7363711;32;20205;-60
2022/05/26 04:15:10;;;;;;;6.60;3.20;;;14.00;99.90;;;;;;7352009;32;20110;-60
2022/05/26 04:19:11;;;;;;;8.32;3.20;;;13.90;99.90;;;;;;7368325;32;20111;-60
2022/05/26 04:23:13;;;;;;;7.43;3.70;;;13.80;99.90;;;;;;7342655;32;20111;-60
2022/05/26 04:27:17;;;;;;;7.25;3.53;;;13.80;99.90;;;;;;7368948;32;20103;-60
2022/05/26 04:31:19;;;;;;;6.75;3.80;;;13.70;99.90;;;;;;7359277;32;20118;-60
2022/05/26 04:35:21;;;;;;;9.50;3.92;;;13.70;99.90;;;;;;7368419;32;20184;-60
2022/05/26 04:39:22;;;;;;;7.50;4.00;;;13.70;99.90;;;;;;7370956;32;20164;-60
2022/05/26 04:43:24;;;;;;;9.23;4.60;;;13.60;99.90;;;;;;7358767;32;20329;-60
2022/05/26 04:47:26;;;;;;;8.50;4.90;;;13.60;99.90;;;;;;7370058;32;20118;-60
2022/05/26 04:51:28;;;;;;;8.38;5.10;;;13.60;99.90;;;;;;7369177;32;20540;-60
2022/05/26 04:55:29;;;;;;;8.25;5.10;;;13.70;99.90;;;;;;7358495;32;20111;-60
2022/05/26 04:59:32;;;;;;;12.30;5.37;;;13.70;99.90;;;;;;7362683;32;20153;-60
2022/05/26 05:03:34;;;;;;;10.18;5.65;;;13.70;99.90;;;;;;7364921;32;20134;-61
2022/05/26 05:07:35;;;;;;;9.90;5.15;;;13.80;99.90;;;;;;7356842;32;20111;-61
2022/05/26 05:11:37;;;;;;;13.88;5.25;;;13.80;99.90;;;;;;7359710;32;20209;-61
2022/05/26 05:15:52;;;;;;;14.20;5.12;;;13.90;99.90;;;;;;7363476;32;20201;-61
2022/05/26 05:19:57;;;;;;;16.23;6.43;;;13.90;99.90;;;;;;7363027;32;20126;-62
2022/05/26 05:24:05;;;;;;;7.78;5.72;;;13.90;99.90;;;;;;7362323;32;20267;-61
2022/05/26 05:28:11;;;;;;;10.60;5.78;;;13.90;99.90;;;;;;7355609;32;20216;-61
2022/05/26 05:32:16;;;;;;;12.63;5.68;;;14.00;99.90;;;;;;7360915;32;20298;-60
2022/05/26 05:36:17;;;;;;;15.02;5.87;;;14.00;99.90;;;;;;7360410;32;20240;-61
2022/05/26 05:40:19;;;;;;;11.75;5.53;;;14.00;99.90;;;;;;7366609;32;20115;-61
2022/05/26 05:44:22;;;;;;;15.55;6.37;;;14.00;99.90;;;;;;7363211;32;20491;-61
2022/05/26 05:48:24;;;;;;;14.55;6.80;;;14.10;99.90;;;;;;7365566;32;20382;-61
2022/05/26 05:52:26;;;;;;;12.52;6.25;;;14.20;99.90;;;;;;7352088;32;20103;-61
2022/05/26 05:56:27;;;;;;;16.00;6.78;;;14.20;99.90;;;;;;7359109;32;20134;-61
2022/05/26 06:00:29;;;;;;;13.43;6.87;;;14.20;99.90;;;;;;7363335;32;20233;-66
2022/05/26 06:04:31;;;;;;;11.12;6.10;;;14.30;99.90;;;;;;7366935;32;20115;-67
2022/05/26 06:08:33;;;;;;;19.65;8.02;;;14.40;99.90;;;;;;7366034;32;20202;-67
2022/05/26 06:12:35;;;;;;;13.07;6.62;;;14.40;99.90;;;;;;7344216;32;20111;-66
2022/05/26 06:16:37;;;;;;;17.67;8.20;;;14.60;99.90;;;;;;7361029;32;20106;-66
2022/05/26 06:20:40;;;;;;;17.95;8.15;;;14.60;99.90;;;;;;7360448;32;20587;-66
2022/05/26 06:24:42;;;;;;;17.60;8.70;;;14.70;99.90;;;;;;7365673;32;20760;-65
2022/05/26 06:37:28;;;;;;;16.62;8.30;;;14.70;99.90;;;;;;7361761;32;20134;-66
2022/05/26 06:45:50;;;;;;;18.10;9.00;;;14.60;99.90;;;;;;7361114;32;20111;-66
2022/05/26 06:49:52;;;;;;;19.45;9.85;;;14.70;99.90;;;;;;7365188;32;20160;-65
2022/05/26 06:53:55;;;;;;;17.85;9.23;;;14.70;99.90;;;;;;7345335;32;20654;-66
2022/05/26 06:57:57;;;;;;;18.60;10.32;;;14.80;99.90;;;;;;7366019;32;20588;-66
2022/05/26 07:01:59;;;;;;;20.00;10.88;;;14.80;99.90;;;;;;7362835;32;20241;-66
2022/05/26 07:06:01;;;;;;;14.95;9.52;;;14.90;99.90;;;;;;7367248;32;20163;-66
2022/05/26 07:10:04;;;;;;;20.50;10.35;;;14.90;99.90;;;;;;7368338;32;20130;-65
2022/05/26 07:14:08;;;;;;;22.73;10.98;;;14.90;99.90;;;;;;7346184;32;20139;-65
2022/05/26 07:18:10;;;;;;;17.55;10.00;;;14.90;99.90;;;;;;7366270;32;20827;-66
2022/05/26 07:22:13;;;;;;;20.17;9.68;;;15.00;99.90;;;;;;7366106;32;20279;-60
2022/05/26 07:26:16;;;;;;;18.20;9.35;;;15.10;99.90;;;;;;7361923;32;20123;-61
2022/05/26 07:30:17;;;;;;;17.27;8.95;;;15.20;99.90;;;;;;7360669;32;20488;-61
2022/05/26 07:34:20;;;;;;;19.05;9.60;;;15.30;99.90;;;;;;7363406;32;20190;-63
2022/05/26 07:42:42;;;;;;;18.05;9.18;;;15.70;99.90;;;;;;7362408;32;20119;-65
2022/05/26 07:46:44;;;;;;;18.25;8.43;;;15.70;99.90;;;;;;7364103;32;20818;-64
2022/05/26 07:50:46;;;;;;;15.95;7.57;;;15.60;99.90;;;;;;7360347;32;20111;-64
2022/05/26 07:54:48;;;;;;;16.25;7.85;;;15.70;99.90;;;;;;7368518;32;20206;-66
2022/05/26 07:58:49;;;;;;;13.57;7.28;;;15.80;99.90;;;;;;7349411;32;20229;-67
2022/05/26 08:02:51;;;;;;;12.75;6.53;;;15.80;99.90;;;;;;7362633;32;20446;-65
2022/05/26 08:06:53;;;;;;;13.50;6.25;;;16.10;99.90;;;;;;7366836;32;20137;-66
2022/05/26 08:10:55;;;;;;;11.80;6.05;;;16.30;99.90;;;;;;7373548;32;20350;-64
2022/05/26 08:14:57;;;;;;;15.00;5.65;;;16.40;99.90;;;;;;7361968;32;20110;-67
2022/05/26 08:18:58;;;;;;;13.98;5.80;;;17.00;99.90;;;;;;7374771;32;20236;-65
2022/05/26 08:23:00;;;;;;;14.48;5.65;;;17.20;99.90;;;;;;7362567;32;20217;-66
2022/05/26 08:27:02;;;;;;;11.75;5.28;;;17.30;99.90;;;;;;7362700;32;20107;-66
2022/05/26 08:31:05;;;;;;;12.18;6.00;;;17.30;99.90;;;;;;7349472;32;20112;-65
2022/05/26 08:35:08;;;;;;;11.75;5.40;;;17.40;99.90;;;;;;7369287;32;20118;-65
2022/05/26 08:39:10;;;;;;;8.35;4.45;;;17.40;99.90;;;;;;7367939;32;20471;-67
2022/05/26 08:43:19;;;;;;;9.13;5.00;;;17.20;99.90;;;;;;7365719;32;20107;-67
2022/05/26 08:47:28;;;;;;;12.80;5.18;;;17.30;99.90;;;;;;7367285;32;20757;-65
2022/05/26 08:51:42;;;;;;;11.00;5.32;;;17.30;99.90;;;;;;7363664;32;20136;-68
2022/05/26 08:55:45;;;;;;;15.63;5.35;;;17.30;99.90;;;;;;7362535;32;20111;-68
2022/05/26 08:59:47;;;;;;;9.68;4.60;;;18.20;99.90;;;;;;7365910;32;20119;-66
2022/05/26 09:03:52;;;;;;;11.57;5.12;;;18.30;99.90;;;;;;7361694;32;20116;-66
2022/05/26 09:17:03;;;;;;;12.55;5.03;;;19.30;99.90;;;;;;7353695;32;20110;-67
2022/05/26 09:21:34;;;;;;;9.45;3.87;;;20.10;99.90;;;;;;7362030;32;20115;-66
2022/05/26 09:25:44;;;;;;;7.45;3.78;;;20.20;99.90;;;;;;7346120;32;20426;-69
2022/05/26 09:29:45;;;;;;;9.50;3.08;;;20.40;99.90;;;;;;7365603;32;20115;-66
2022/05/26 09:34:08;;;;;;;7.18;3.42;;;20.00;99.90;;;;;;7355117;32;20600;-67
2022/05/26 09:38:16;;;;;;;10.15;3.60;;;20.30;99.90;;;;;;7364141;32;20154;-66
2022/05/26 09:42:20;;;;;;;9.68;3.15;;;20.40;99.90;;;;;;7368908;32;20205;-67
2022/05/26 09:46:25;;;;;;;9.35;2.95;;;20.60;99.90;;;;;;7363949;32;20115;-67
2022/05/26 09:50:42;;;;;;;6.80;2.67;;;20.90;99.90;;;;;;7360214;32;20554;-68
2022/05/26 09:54:45;;;;;;;;;;;20.40;99.90;;;;;;7356777;32;20169;-68
2022/05/26 09:58:46;;;;;;;8.07;2.92;;;19.90;99.90;;;;;;7362923;32;20028;-68
2022/05/26 10:02:50;;;;;;;9.40;2.78;;;19.40;99.90;;;;;;7357272;32;20260;-66
2022/05/26 10:07:01;;;;;;;9.63;2.62;;;19.70;99.90;;;;;;7362743;32;20110;-67
2022/05/26 10:11:11;;;;;;;7.85;2.35;;;20.10;99.90;;;;;;7361664;32;20226;-66
2022/05/26 10:15:34;;;;;;;7.30;2.42;;;19.50;99.90;;;;;;7365413;32;20145;-66
2022/05/26 10:19:54;;;;;;;7.80;2.60;;;20.00;99.90;;;;;;7368611;32;20103;-66
2022/05/26 10:24:15;;;;;;;7.78;2.62;;;20.80;99.90;;;;;;7361205;32;20111;-66
2022/05/26 10:28:39;;;;;;;7.50;2.12;;;20.30;99.90;;;;;;7362580;32;20106;-67
2022/05/26 10:33:19;;;;;;;8.38;2.47;;;19.80;99.90;;;;;;7361861;32;20108;-65
2022/05/26 10:37:39;;;;;;;7.80;2.40;;;19.60;99.90;;;;;;7366978;32;20271;-67
2022/05/26 10:41:49;;;;;;;8.93;2.28;;;20.20;99.90;;;;;;7361149;32;20146;-66
2022/05/26 10:45:52;;;;;;;5.57;2.20;;;20.20;99.90;;;;;;7335805;32;20115;-66
2022/05/26 10:50:04;;;;;;;9.07;2.40;;;20.00;99.90;;;;;;7360360;32;20218;-67
2022/05/26 10:54:11;;;;;;;10.50;2.72;;;19.50;99.90;;;;;;7365881;32;20212;-66
2022/05/26 10:58:20;;;;;;;5.62;2.35;;;20.00;99.90;;;;;;7362140;32;20763;-67
2022/05/26 11:02:34;;;;;;;4.62;2.00;;;20.60;99.90;;;;;;7361133;32;20162;-65
2022/05/26 11:06:39;;;;;;;6.62;2.10;;;21.00;99.90;;;;;;7364234;32;20190;-67
2022/05/26 11:10:48;;;;;;;4.62;1.77;;;21.00;99.90;;;;;;7364894;32;20114;-65
2022/05/26 11:19:48;;;;;;;8.75;2.20;;;20.10;99.90;;;;;;7368634;32;20129;-65
2022/05/26 11:23:50;;;;;;;5.10;1.95;;;19.70;99.90;;;;;;7368452;32;20119;-68
2022/05/26 11:28:08;;;;;;;4.53;1.92;;;19.40;99.90;;;;;;7359107;32;20571;-59
2022/05/26 11:36:33;;;;;;;7.00;2.10;;;20.60;99.90;;;;;;7369168;32;20110;-58
2022/05/26 11:41:03;;;;;;;6.10;1.70;;;20.10;99.90;;;;;;7360974;32;20253;-58
2022/05/26 11:45:13;;;;;;;6.78;2.10;;;19.70;99.90;;;;;;7362685;32;20598;-65
2022/05/26 11:49:43;;;;;;;5.80;1.90;;;19.30;99.90;;;;;;7347010;32;20222;-65
2022/05/26 11:53:47;;;;;;;4.40;1.80;;;19.50;99.90;;;;;;7364083;32;20137;-65
2022/05/26 11:57:54;;;;;;;8.02;2.12;;;19.60;99.90;;;;;;7360496;32;20835;-64
2022/05/26 12:01:59;;;;;;;6.75;1.80;;;19.90;99.90;;;;;;7362262;32;20107;-65
2022/05/26 12:06:06;;;;;;;6.45;2.05;;;20.30;99.90;;;;;;7366190;32;20119;-67
2022/05/26 12:10:19;;;;;;;5.68;1.73;;;20.50;99.90;;;;;;7370151;32;20678;-57
2022/05/26 12:14:27;;;;;;;7.47;1.85;;;20.60;99.90;;;;;;7362223;32;20333;-57
2022/05/26 12:18:49;;;;;;;5.72;1.90;;;20.50;99.90;;;;;;7366312;32;20224;-58
2022/05/26 12:22:50;;;;;;;5.55;2.00;;;20.60;99.90;;;;;;7362924;32;20111;-60
2022/05/26 12:26:54;;;;;;;7.45;2.10;;;20.50;99.90;;;;;;7361745;32;20129;-59
2022/05/26 12:30:56;;;;;;;6.45;2.00;;;20.00;99.90;;;;;;7362728;32;20114;-60
2022/05/26 12:35:27;;;;;;;5.82;1.73;;;19.80;99.90;;;;;;7363195;32;20128;-59
2022/05/26 12:40:07;;;;;;;7.10;1.90;;;19.70;99.90;;;;;;7358993;32;20214;-59
2022/05/26 12:44:39;;;;;;;6.90;1.98;;;20.10;99.90;;;;;;7362396;32;20213;-59
2022/05/26 12:49:26;;;;;;;8.27;1.90;;;20.40;99.90;;;;;;7363574;32;20223;-59
2022/05/26 12:53:32;;;;;;;5.70;2.08;;;20.60;99.90;;;;;;7338891;32;20242;-60
2022/05/26 12:57:36;;;;;;;5.82;2.03;;;20.70;99.90;;;;;;7359864;32;20111;-60
2022/05/26 13:01:38;;;;;;;6.15;2.25;;;20.90;99.90;;;;;;7360975;32;20133;-60
2022/05/26 13:05:44;;;;;;;6.00;1.95;;;20.80;99.90;;;;;;7366856;32;20111;-60
2022/05/26 13:09:51;;;;;;;5.10;1.60;;;20.70;99.90;;;;;;7353402;32;20176;-60
2022/05/26 13:13:57;;;;;;;5.37;1.70;;;21.00;99.90;;;;;;7360468;32;20107;-60
2022/05/26 13:17:59;;;;;;;6.93;1.70;;;20.90;99.90;;;;;;7363691;32;20216;-60
2022/05/26 13:22:15;;;;;;;6.15;1.73;;;21.30;99.90;;;;;;7363594;32;20133;-61
2022/05/26 13:26:18;;;;;;;6.87;1.92;;;21.30;99.90;;;;;;7338651;32;20544;-61
2022/05/26 13:34:52;;;;;;;5.12;1.62;;;20.90;99.90;;;;;;7363136;32;20330;-62
2022/05/26 13:38:54;;;;;;;5.30;1.65;;;20.70;99.90;;;;;;7360174;32;20610;-60
2022/05/26 13:42:56;;;;;;;6.35;1.85;;;20.90;99.90;;;;;;7360231;32;20137;-61
2022/05/26 13:47:00;;;;;;;6.25;1.60;;;20.80;99.90;;;;;;7359934;32;20821;-60
2022/05/26 13:51:15;;;;;;;6.93;1.80;;;20.80;99.90;;;;;;7362379;32;20211;-67
2022/05/26 13:55:22;;;;;;;4.97;1.85;;;20.50;99.90;;;;;;7358243;32;20634;-68
2022/05/26 13:59:25;;;;;;;4.90;1.75;;;20.30;99.90;;;;;;7360259;32;20172;-67
2022/05/26 14:03:31;;;;;;;5.22;1.50;;;20.20;99.90;;;;;;7362969;32;20163;-68
2022/05/26 14:07:37;;;;;;;5.87;2.10;;;19.80;99.90;;;;;;7365542;32;20190;-68
2022/05/26 14:11:42;;;;;;;3.90;1.83;;;19.70;99.90;;;;;;7364223;32;20445;-68
2022/05/26 14:15:47;;;;;;;4.32;1.50;;;19.60;99.90;;;;;;7359172;32;20111;-69
2022/05/26 14:19:49;;;;;;;4.95;1.73;;;19.70;99.90;;;;;;7346872;32;20225;-69
2022/05/26 14:24:00;;;;;;;5.07;1.35;;;19.50;99.90;;;;;;7362494;32;20680;-68
2022/05/26 14:28:05;;;;;;;5.22;1.37;;;19.30;99.90;;;;;;7369278;32;20508;-68
2022/05/26 14:32:15;;;;;;;3.83;1.30;;;19.40;99.90;;;;;;7367004;32;20549;-67
2022/05/26 14:36:16;;;;;;;6.30;1.60;;;19.50;99.90;;;;;;7351481;32;20116;-69
2022/05/26 14:40:18;;;;;;;4.65;1.27;;;19.70;99.90;;;;;;7362932;32;20115;-68
2022/05/26 14:44:20;;;;;;;5.85;1.60;;;19.80;99.90;;;;;;7359412;32;20801;-68
2022/05/26 14:48:22;;;;;;;10.40;1.58;;;19.80;99.90;;;;;;7356521;32;20111;-68
2022/05/26 14:52:28;;;;;;;4.87;1.65;;;19.90;99.90;;;;;;7339726;32;20190;-68
2022/05/26 14:56:30;;;;;;;4.60;1.67;;;19.80;99.90;;;;;;7357933;32;20335;-67
2022/05/26 15:00:37;;;;;;;7.87;1.83;;;19.80;99.90;;;;;;7369277;32;20679;-69
2022/05/26 15:04:39;;;;;;;6.25;1.45;;;20.10;99.90;;;;;;7364331;32;20236;-68
2022/05/26 15:08:44;;;;;;;7.70;2.12;;;20.10;99.90;;;;;;7363479;32;20104;-68
2022/05/26 15:12:46;;;;;;;5.68;2.08;;;20.30;99.90;;;;;;7347993;32;20122;-68
2022/05/26 15:16:50;;;;;;;7.18;2.05;;;20.20;99.90;;;;;;7362915;32;20119;-68
2022/05/26 15:20:53;;;;;;;6.87;1.80;;;20.40;99.90;;;;;;7364224;32;20159;-70
2022/05/26 15:25:04;;;;;;;7.18;1.70;;;20.50;99.90;;;;;;7362442;32;20117;-69
2022/05/26 15:29:07;;;;;;;4.80;1.77;;;20.30;99.90;;;;;;7355468;32;20118;-66
2022/05/26 15:33:08;;;;;;;8.68;1.95;;;20.40;99.90;;;;;;7362479;32;20098;-68
2022/05/26 15:37:11;;;;;;;5.37;1.67;;;20.40;99.90;;;;;;7348098;32;21149;-68
2022/05/26 15:41:13;;;;;;;9.35;1.90;;;20.50;99.90;;;;;;7359439;32;20710;-67
2022/05/26 15:45:20;;;;;;;7.47;2.20;;;20.30;99.90;;;;;;7364792;32;20202;-60
2022/05/26 15:49:23;;;;;;;5.87;1.90;;;20.10;99.90;;;;;;7359744;32;20237;-60
2022/05/26 15:53:31;;;;;;;6.32;1.55;;;19.90;99.90;;;;;;7359509;32;20099;-61
2022/05/26 15:57:37;;;;;;;5.90;1.83;;;19.90;99.90;;;;;;7365639;32;20190;-61
2022/05/26 16:01:38;;;;;;;3.67;1.58;;;20.00;99.90;;;;;;7358836;32;20107;-60
2022/05/26 16:05:40;;;;;;;6.03;1.60;;;20.00;99.90;;;;;;7358377;32;20198;-56
2022/05/26 16:09:42;;;;;;;6.15;1.92;;;19.90;99.90;;;;;;7357226;32;20122;-55
2022/05/26 16:13:44;;;;;;;6.47;2.10;;;20.00;99.90;;;;;;7357201;32;20104;-56
2022/05/26 16:17:45;;;;;;;3.65;1.35;;;19.90;99.90;;;;;;7359432;32;20475;-56
2022/05/26 16:21:48;;;;;;;6.20;2.17;;;19.90;99.90;;;;;;7356921;32;20118;-55
2022/05/26 16:25:56;;;;;;;8.27;1.77;;;20.00;99.90;;;;;;7360158;32;20272;-58
2022/05/26 16:29:58;;;;;;;5.15;1.80;;;20.00;99.90;;;;;;7356724;32;20664;-62
2022/05/26 16:34:00;;;;;;;8.13;1.83;;;20.00;99.90;;;;;;7360224;32;20304;-64
2022/05/26 16:38:01;;;;;;;5.37;1.70;;;19.80;99.90;;;;;;7355219;32;20296;-63
2022/05/26 16:42:03;;;;;;;6.22;1.45;;;19.80;99.90;;;;;;7361105;32;20691;-64
2022/05/26 16:46:05;;;;;;;6.18;1.67;;;19.80;99.90;;;;;;7356851;32;20518;-63
2022/05/26 16:50:08;;;;;;;6.50;1.60;;;19.70;99.90;;;;;;7354693;32;20614;-64
2022/05/26 16:54:23;;;;;;;6.50;1.75;;;19.60;99.90;;;;;;7355619;32;20265;-64
2022/05/26 16:58:26;;;;;;;6.28;1.50;;;19.50;99.90;;;;;;7358429;32;20296;-63
2022/05/26 17:02:28;;;;;;;6.32;1.67;;;19.50;99.90;;;;;;7361829;32;20112;-63
2022/05/26 17:06:29;;;;;;;6.03;1.50;;;19.50;99.90;;;;;;7358061;32;20729;-63
2022/05/26 17:10:32;;;;;;;3.00;1.05;;;19.50;99.90;;;;;;7358291;32;20107;-64
2022/05/26 17:23:19;;;;;;;5.80;1.60;;;19.20;99.90;;;;;;7356551;32;20099;-63
2022/05/26 17:27:30;;;;;;;6.75;1.40;;;19.20;99.90;;;;;;7353572;32;20212;-62
2022/05/26 17:31:32;;;;;;;6.35;1.60;;;19.10;99.90;;;;;;7359269;32;20107;-62
2022/05/26 17:35:34;;;;;;;4.75;1.20;;;19.20;99.90;;;;;;7367623;32;20107;-63
2022/05/26 17:39:36;;;;;;;5.40;1.35;;;19.20;99.90;;;;;;7362559;32;20124;-62
2022/05/26 17:43:38;;;;;;;5.40;1.10;;;19.10;99.90;;;;;;7344497;32;20121;-64
2022/05/26 17:47:40;;;;;;;8.13;1.92;;;19.00;99.90;;;;;;7359476;32;20985;-62
2022/05/26 17:51:44;;;;;;;6.25;1.23;;;19.10;99.90;;;;;;7354054;32;20124;-62
2022/05/26 17:55:45;;;;;;;7.90;1.20;;;19.00;99.90;;;;;;7357316;32;20197;-62
2022/05/26 18:04:09;;;;;;;4.95;1.30;;;19.00;99.90;;;;;;7356020;32;20099;-63
2022/05/26 18:08:12;;;;;;;8.45;1.52;;;19.00;99.90;;;;;;7359876;32;20123;-63
2022/05/26 18:12:14;;;;;;;8.02;1.35;;;19.00;99.90;;;;;;7356774;32;20158;-63
2022/05/26 18:16:20;;;;;;;6.05;1.20;;;18.90;99.90;;;;;;7356157;32;20103;-64
2022/05/26 18:20:22;;;;;;;7.05;1.50;;;18.90;99.90;;;;;;7356001;32;20597;-65
2022/05/26 18:24:23;;;;;;;6.55;1.48;;;18.90;99.90;;;;;;7356702;32;20103;-63
2022/05/26 18:28:25;;;;;;;5.53;1.42;;;18.80;99.90;;;;;;7363381;32;20096;-64
2022/05/26 18:32:27;;;;;;;8.70;1.42;;;18.70;99.90;;;;;;7360536;32;20175;-61
2022/05/26 18:36:29;;;;;;;5.75;1.30;;;18.80;99.90;;;;;;7370777;32;20099;-61
2022/05/26 18:40:30;;;;;;;6.10;1.30;;;18.80;99.90;;;;;;7369810;32;20757;-61
2022/05/26 18:44:35;;;;;;;5.53;1.02;;;18.60;99.90;;;;;;7363287;32;20286;-65
2022/05/26 18:48:37;;;;;;;5.70;1.12;;;18.60;99.90;;;;;;7369030;32;20103;-64
2022/05/26 18:52:40;;;;;;;4.95;1.20;;;18.60;99.90;;;;;;7371082;32;20175;-65
2022/05/26 18:56:42;;;;;;;6.03;1.35;;;18.50;99.90;;;;;;7371533;32;20198;-67
2022/05/26 19:00:53;;;;;;;4.68;1.30;;;18.50;99.90;;;;;;7366218;32;20137;-66
2022/05/26 19:05:16;;;;;;;10.38;1.12;;;18.40;99.90;;;;;;7368397;32;20103;-67
2022/05/26 19:09:18;;;;;;;6.72;1.40;;;18.40;99.90;;;;;;7366880;32;20177;-67
2022/05/26 19:13:30;;;;;;;6.10;1.25;;;18.50;99.90;;;;;;7360276;32;20104;-65
2022/05/26 19:18:05;;;;;;;9.32;1.70;;;18.40;99.90;;;;;;7375329;32;20194;-65
2022/05/26 19:21:54;;;;;;;8.80;1.37;;;18.40;99.90;;;;;;7366255;32;20447;-63
2022/05/26 19:26:03;;;;;;;6.72;1.20;;;18.30;99.90;;;;;;7367668;32;20201;-64
2022/05/26 19:30:08;;;;;;;6.80;1.35;;;18.30;99.90;;;;;;7363653;32;20127;-64
2022/05/26 19:34:09;;;;;;;6.05;1.30;;;18.30;99.90;;;;;;7347212;32;20121;-64
2022/05/26 19:38:11;;;;;;;6.85;1.20;;;18.30;99.90;;;;;;7374335;32;20204;-65
2022/05/26 19:42:23;;;;;;;6.10;1.05;;;18.20;99.90;;;;;;7351604;32;20161;-66
2022/05/26 19:46:33;;;;;;;4.72;1.00;;;18.30;99.90;;;;;;7364767;32;20127;-61
2022/05/26 19:50:35;;;;;;;7.75;1.20;;;18.20;99.90;;;;;;7367696;32;20237;-63
2022/05/26 19:54:36;;;;;;;4.85;1.23;;;18.10;99.90;;;;;;7356819;32;20145;-61
2022/05/26 19:59:05;;;;;;;6.97;1.25;;;18.10;99.90;;;;;;7366859;32;20122;-60
2022/05/26 20:03:08;;;;;;;7.15;1.20;;;18.10;99.90;;;;;;7365136;32;20144;-61
2022/05/26 20:07:11;;;;;;;5.32;0.80;;;18.00;99.90;;;;;;7375016;32;20912;-62
2022/05/26 20:11:14;;;;;;;5.57;1.17;;;18.00;99.90;;;;;;7353379;32;20161;-61
2022/05/26 20:15:17;;;;;;;7.53;1.08;;;18.00;99.90;;;;;;7370469;32;20118;-61
2022/05/26 20:19:19;;;;;;;8.82;1.15;;;17.80;99.90;;;;;;7365249;32;20130;-61
2022/05/26 20:23:21;;;;;;;6.12;1.20;;;17.80;99.90;;;;;;7360066;32;20111;-61
2022/05/26 20:27:24;;;;;;;4.25;1.37;;;17.80;99.90;;;;;;7367701;32;20528;-61
2022/05/26 20:31:26;;;;;;;4.97;1.10;;;17.90;99.90;;;;;;7356208;32;20102;-61
2022/05/26 20:35:29;;;;;;;6.87;1.20;;;17.80;99.90;;;;;;7372589;32;20233;-60
2022/05/26 20:39:36;;;;;;;4.00;0.88;;;17.70;99.90;;;;;;7365740;32;20182;-61
2022/05/26 20:43:38;;;;;;;5.55;0.90;;;17.70;99.90;;;;;;7360060;32;20099;-61
2022/05/26 20:47:43;;;;;;;2.47;0.80;;;17.70;99.90;;;;;;7358987;32;20227;-61
2022/05/26 20:51:45;;;;;;;3.58;1.10;;;17.60;99.90;;;;;;7356700;32;20535;-61
2022/05/26 20:55:52;;;;;;;7.55;1.60;;;17.60;99.90;;;;;;7362565;32;20517;-61
2022/05/26 20:59:54;;;;;;;;;;;17.50;99.90;;;;;;7364486;32;20162;-61
2022/05/26 21:03:56;;;;;;;4.97;1.17;;;17.50;99.90;;;;;;7346107;32;20023;-61
2022/05/26 21:07:58;;;;;;;5.68;1.20;;;17.50;99.90;;;;;;7363905;32;20108;-61
2022/05/26 21:12:00;;;;;;;4.40;1.25;;;17.40;99.90;;;;;;7357202;32;20091;-60
2022/05/26 21:16:01;;;;;;;4.18;1.10;;;17.40;99.90;;;;;;7359603;32;20596;-61
2022/05/26 21:20:05;;;;;;;6.22;1.00;;;17.30;99.90;;;;;;7359509;32;20153;-59
2022/05/26 21:24:09;;;;;;;6.07;1.45;;;17.20;99.90;;;;;;7356254;32;20190;-60
2022/05/26 21:28:20;;;;;;;7.53;1.55;;;17.20;99.90;;;;;;7361700;32;20779;-60
2022/05/26 21:32:22;;;;;;;7.43;1.40;;;17.10;99.90;;;;;;7362520;32;20267;-59
2022/05/26 21:36:24;;;;;;;5.90;1.30;;;17.00;99.90;;;;;;7364029;32;20120;-60
2022/05/26 21:40:26;;;;;;;6.47;1.20;;;17.10;99.90;;;;;;7363401;32;20646;-60
2022/05/26 21:44:28;;;;;;;3.62;1.05;;;16.90;99.90;;;;;;7359056;32;20103;-60
2022/05/26 21:48:30;;;;;;;6.07;1.25;;;16.90;99.90;;;;;;7345442;32;20385;-59
2022/05/26 21:52:33;;;;;;;3.03;1.10;;;16.70;99.90;;;;;;7367663;32;20241;-61
2022/05/26 21:56:35;;;;;;;3.17;1.10;;;16.60;99.90;;;;;;7361226;32;20122;-60
2022/05/26 22:00:58;;;;;;;2.60;0.70;;;16.50;99.90;;;;;;7359103;32;20130;-61
2022/05/26 22:13:40;;;;;;;6.45;0.93;;;16.20;99.90;;;;;;7366611;32;20100;-59
2022/05/26 22:17:42;;;;;;;3.47;0.70;;;16.00;99.90;;;;;;7367676;32;20658;-59
2022/05/26 22:21:46;;;;;;;3.67;0.80;;;15.90;99.90;;;;;;7348064;32;20652;-60
2022/05/26 22:25:48;;;;;;;2.00;0.50;;;15.90;99.90;;;;;;7345953;32;20129;-58
2022/05/26 22:29:50;;;;;;;4.68;0.80;;;15.90;99.90;;;;;;7350753;32;20205;-59